Rechercher aéroport 
image banner adimage banner adimage banner ad
image banner ad

32CA - Stone Airstrip

Situé à Lemoore, United States

ICAO - 32CA, IATA -

Données fournies par Airmate  

Information générale

Coordonnées: N36°19'60" W119°49'30"
Élévation : 220 feet MSL.
Variation magnétique : 15° East
Voir autres Aéroports à California

Données opérationnelles

Special qualification required
Heure actuelle UTC:
Heure actuelle locale:
Météo à : KNLC - Lemoore Nas (Reeves Fld) ( 11 km )
METAR: KNLC 262356Z 17016G23KT 10SM SCT010 BKN200 36/07 A2983 RMK AO2 WSHFT 2326 SLP100 FU SCT010 RH/14 T03610067 10389 20300 56008
TAF: TAF KNLC 2623/2723 06008KT 9999 FEW010 SCT200 641609 652404 551809 532703 QNH2977INS TEMPO 2700/2706 VRB06KT FEW010 SCT100 BKN200 FM270600 VRB06KT 9999 SCT100 BKN200 641609 652404 551809 532703 QNH2975INS T19/2714Z T39/2723Z FS30012
Voir NOTAMs / SUP AIP / TFR affectant cet aéroport [VIEW]
Fréquences de communication: [VIEW]

Pistes:

Identifiant RWYQFULongueur (ft)Largeur (ft)SurfaceLDA (ft)
16254030ASPH
34254030ASPH

Coordonnées de l'aéroport

Adresse: Lemoore United States

Vue satellite de 32CA